Terminal Aerodrome Forecast
Issued by NWS

Home | Current Version | Previous Version | Text Only | Print | Product List | Glossary On
Versions: 1 2 3 4 5 6 7 8 9 10 11 12 13 14
080
FTAK31 PAJN 301726
TAFASI
TAF
PASI 301726Z 3018/0118 02016G25KT P6SM SKC WS020/06035KT
     FM010000 01012G20KT P6SM SKC WS020/06030KT
     FM010600 01008KT P6SM SKC=

USA.gov is the U.S. government's official web portal to all federal, state and local government web resources and services.